createdAt,value
2019-03-12T00:01:26.232Z,3.92
2019-03-12T00:04:31.514Z,3.86
2019-03-12T00:07:36.873Z,3.90
2019-03-12T00:10:42.191Z,3.87
2019-03-12T00:13:47.495Z,3.87
2019-03-12T00:16:52.820Z,3.83
2019-03-12T00:19:58.100Z,3.86
2019-03-12T00:23:03.382Z,3.79
2019-03-12T00:26:08.694Z,3.80
2019-03-12T00:29:14.035Z,3.89
2019-03-12T00:32:19.394Z,3.83
2019-03-12T00:35:24.629Z,3.78
2019-03-12T00:38:29.928Z,3.72
2019-03-12T00:41:35.265Z,3.78
2019-03-12T00:44:42.397Z,3.77
2019-03-12T00:47:47.674Z,3.76
2019-03-12T00:50:53.114Z,3.79
2019-03-12T00:53:58.403Z,3.79
2019-03-12T00:57:03.709Z,3.79
2019-03-12T01:00:11.860Z,3.71
2019-03-12T01:03:17.120Z,3.59
2019-03-12T01:06:28.540Z,3.65
2019-03-12T01:09:33.809Z,3.60
2019-03-12T01:12:39.186Z,3.60
2019-03-12T01:15:44.699Z,3.60
2019-03-12T01:18:51.383Z,3.59
2019-03-12T01:21:56.644Z,3.59
2019-03-12T01:25:07.032Z,3.61
2019-03-12T01:28:12.059Z,3.64
2019-03-12T01:31:17.404Z,3.61
2019-03-12T01:34:22.801Z,3.69
2019-03-12T01:37:28.089Z,3.60
2019-03-12T01:40:33.474Z,3.58
2019-03-12T01:43:38.807Z,3.55
2019-03-12T01:46:44.273Z,3.55
2019-03-12T01:49:49.511Z,3.57
2019-03-12T01:52:54.882Z,3.53
2019-03-12T01:56:00.152Z,3.48
2019-03-12T01:59:05.490Z,3.43
2019-03-12T02:02:10.748Z,3.36
2019-03-12T02:05:16.144Z,3.46
2019-03-12T02:08:21.449Z,3.39
2019-03-12T02:11:26.742Z,3.40
2019-03-12T02:14:32.052Z,3.33
2019-03-12T02:17:39.859Z,3.28
2019-03-12T02:20:45.179Z,3.20
2019-03-12T02:23:50.478Z,3.11
2019-03-12T02:26:55.781Z,3.01
2019-03-12T02:30:01.035Z,2.89
2019-03-12T02:33:07.394Z,2.85
2019-03-12T02:36:12.657Z,2.84
2019-03-12T02:39:17.885Z,2.74
2019-03-12T02:42:26.144Z,2.89
2019-03-12T02:45:31.415Z,2.80
2019-03-12T02:48:36.783Z,2.76
2019-03-12T02:51:44.360Z,2.79
2019-03-12T02:54:49.681Z,2.75
2019-03-12T02:57:56.967Z,2.65
2019-03-12T03:01:03.538Z,2.70
2019-03-12T03:04:09.469Z,2.52
2019-03-12T03:07:34.068Z,2.59
2019-03-12T03:10:39.387Z,2.37
2019-03-12T03:13:44.749Z,2.53
2019-03-12T03:16:50.190Z,2.45
2019-03-12T03:19:55.473Z,2.31
2019-03-12T03:23:00.820Z,2.30
2019-03-12T03:26:06.115Z,2.14
2019-03-12T03:29:11.345Z,2.14
2019-03-12T03:32:16.730Z,2.12
2019-03-12T03:35:21.960Z,1.92
2019-03-12T03:38:27.368Z,1.95
2019-03-12T03:41:34.733Z,1.94
2019-03-12T03:44:39.920Z,1.92
2019-03-12T03:47:45.203Z,1.93
2019-03-12T03:50:50.452Z,1.85
2019-03-12T03:53:55.793Z,1.81
2019-03-12T03:57:02.591Z,1.88
2019-03-12T04:00:10.547Z,1.91
2019-03-12T04:03:15.792Z,1.90
2019-03-12T04:06:21.119Z,1.77
2019-03-12T04:09:26.476Z,1.93
2019-03-12T04:12:31.704Z,1.86
2019-03-12T04:15:37.015Z,1.83
2019-03-12T04:18:42.383Z,1.69
2019-03-12T04:21:47.617Z,1.70
2019-03-12T04:24:52.930Z,1.70
2019-03-12T04:27:58.302Z,1.64
2019-03-12T04:31:03.620Z,1.58
2019-03-12T04:34:32.995Z,1.64
2019-03-12T04:37:38.353Z,1.75
2019-03-12T04:40:43.587Z,1.76
2019-03-12T04:43:48.876Z,1.66
2019-03-12T04:46:54.134Z,1.73
2019-03-12T04:50:01.063Z,1.77
2019-03-12T04:53:07.352Z,1.64
2019-03-12T04:56:13.678Z,1.65
2019-03-12T04:59:18.942Z,1.54
2019-03-12T05:02:24.177Z,1.55
2019-03-12T05:05:29.467Z,1.51
2019-03-12T05:08:34.805Z,1.54
2019-03-12T05:11:40.158Z,1.43
2019-03-12T05:14:46.501Z,1.42
2019-03-12T05:17:51.797Z,1.32
2019-03-12T05:20:59.932Z,1.36
2019-03-12T05:24:06.241Z,1.61
2019-03-12T05:27:11.550Z,1.54
2019-03-12T05:30:22.053Z,1.70
2019-03-12T05:33:24.307Z,1.76
2019-03-12T05:36:29.632Z,1.72
2019-03-12T05:39:46.603Z,1.72
2019-03-12T05:42:51.924Z,1.80
2019-03-12T05:45:57.237Z,1.88
2019-03-12T05:49:02.558Z,1.93
2019-03-12T05:52:07.855Z,1.96
2019-03-12T05:55:13.851Z,1.93
2019-03-12T05:58:20.219Z,2.06
2019-03-12T06:01:25.606Z,2.09
2019-03-12T06:04:33.527Z,2.13
2019-03-12T06:07:38.842Z,2.22
2019-03-12T06:10:44.182Z,2.41
2019-03-12T06:13:49.451Z,2.41
2019-03-12T06:16:54.751Z,2.27
2019-03-12T06:20:00.023Z,2.27
2019-03-12T06:23:05.411Z,2.20
2019-03-12T06:26:10.683Z,2.29
2019-03-12T06:29:17.436Z,2.21
2019-03-12T06:32:50.755Z,2.15
2019-03-12T06:36:18.067Z,2.21
2019-03-12T06:39:30.238Z,2.23
2019-03-12T06:42:59.393Z,2.15
2019-03-12T06:46:29.959Z,2.29
2019-03-12T06:49:52.926Z,2.28
2019-03-12T06:53:19.483Z,2.49
2019-03-12T06:56:42.636Z,2.86
2019-03-12T07:00:06.806Z,3.30
2019-03-12T07:03:30.986Z,3.65
2019-03-12T07:07:01.453Z,3.70
2019-03-12T07:10:31.182Z,3.84
2019-03-12T07:13:54.081Z,4.05
2019-03-12T07:17:13.191Z,4.19
2019-03-12T07:20:43.456Z,4.05
2019-03-12T07:24:16.963Z,4.16
2019-03-12T07:27:28.353Z,4.10
2019-03-12T07:30:45.172Z,4.20
2019-03-12T07:34:09.316Z,4.29
2019-03-12T07:37:32.191Z,4.41
2019-03-12T07:40:52.101Z,4.66
2019-03-12T07:44:29.347Z,4.72
2019-03-12T07:47:51.023Z,4.87
2019-03-12T07:51:18.467Z,4.95
2019-03-12T07:54:48.709Z,5.00
2019-03-12T07:58:15.899Z,5.32
2019-03-12T08:01:39.166Z,5.28
2019-03-12T08:04:53.782Z,5.37
2019-03-12T08:08:08.047Z,5.50
2019-03-12T08:11:44.690Z,5.60
2019-03-12T08:15:01.041Z,5.92
2019-03-12T08:18:32.047Z,6.07
2019-03-12T08:21:59.280Z,6.00
2019-03-12T08:25:23.597Z,6.17
2019-03-12T08:28:51.226Z,6.04
2019-03-12T08:32:10.923Z,6.45
2019-03-12T08:35:43.695Z,6.42
2019-03-12T08:39:02.561Z,6.48
2019-03-12T08:42:54.638Z,6.74
2019-03-12T08:46:00.977Z,6.71
2019-03-12T08:49:43.481Z,6.75
2019-03-12T08:53:10.482Z,6.94
2019-03-12T08:56:44.852Z,6.97
2019-03-12T09:00:02.217Z,6.93
2019-03-12T09:03:26.396Z,7.04
2019-03-12T09:06:52.593Z,7.02
2019-03-12T09:10:15.737Z,7.09
2019-03-12T09:13:55.251Z,6.78
2019-03-12T09:17:13.678Z,6.74
2019-03-12T09:20:31.081Z,6.86
2019-03-12T09:24:01.557Z,6.90
2019-03-12T09:27:35.870Z,7.11
2019-03-12T09:31:09.110Z,7.27
2019-03-12T09:34:26.730Z,7.41
2019-03-12T09:37:57.131Z,7.38
2019-03-12T09:41:30.362Z,7.23
2019-03-12T09:44:53.133Z,7.33
2019-03-12T09:48:32.628Z,7.46
2019-03-12T09:51:59.918Z,7.14
2019-03-12T09:55:21.208Z,7.43
2019-03-12T09:58:45.381Z,6.90
2019-03-12T10:02:12.552Z,6.95
2019-03-12T10:05:36.805Z,7.13
2019-03-12T10:08:51.464Z,7.30
2019-03-12T10:12:32.466Z,7.25
2019-03-12T10:15:55.176Z,7.18
2019-03-12T10:19:19.372Z,7.37
2019-03-12T10:22:44.598Z,7.34
2019-03-12T10:26:20.948Z,7.39
2019-03-12T10:29:41.967Z,7.39
2019-03-12T10:33:04.722Z,7.33
2019-03-12T10:36:31.024Z,7.72
2019-03-12T10:40:12.628Z,8.20
2019-03-12T10:43:27.293Z,8.67
2019-03-12T10:46:44.311Z,8.93
2019-03-12T10:49:49.575Z,8.51
2019-03-12T10:52:54.923Z,8.77
2019-03-12T10:56:00.174Z,8.80
2019-03-12T10:59:05.465Z,8.78
2019-03-12T11:02:10.822Z,8.86
2019-03-12T11:05:16.106Z,9.19
2019-03-12T11:08:21.392Z,9.25
2019-03-12T11:11:26.618Z,9.40
2019-03-12T11:14:31.860Z,9.42
2019-03-12T11:17:48.930Z,9.39
2019-03-12T11:20:44.221Z,9.38
2019-03-12T11:23:49.565Z,9.23
2019-03-12T11:26:54.821Z,9.17
2019-03-12T11:30:00.295Z,9.37
2019-03-12T11:33:05.922Z,9.03
2019-03-12T11:36:11.238Z,9.77
2019-03-12T11:39:21.493Z,9.41
2019-03-12T11:42:27.160Z,9.31
2019-03-12T11:45:36.895Z,8.71
2019-03-12T11:48:40.583Z,8.86
2019-03-12T11:51:45.918Z,8.80
2019-03-12T11:54:51.407Z,8.93
2019-03-12T11:57:56.684Z,9.08
2019-03-12T12:01:04.337Z,9.17
2019-03-12T12:04:09.602Z,8.93
2019-03-12T12:07:15.967Z,8.89
2019-03-12T12:10:21.190Z,8.75
2019-03-12T12:13:26.453Z,8.58
2019-03-12T12:16:33.350Z,8.91
2019-03-12T12:19:38.705Z,9.38
2019-03-12T12:22:43.985Z,9.14
2019-03-12T12:25:49.321Z,9.32
2019-03-12T12:28:54.635Z,8.80
2019-03-12T12:31:59.924Z,8.72
2019-03-12T12:35:06.837Z,8.44
2019-03-12T12:38:13.811Z,9.15
2019-03-12T12:41:20.202Z,8.76
2019-03-12T12:44:25.527Z,8.97
2019-03-12T12:47:30.866Z,8.81
2019-03-12T12:50:36.072Z,8.74
2019-03-12T12:53:41.433Z,9.07
2019-03-12T12:56:46.686Z,8.88
2019-03-12T12:59:52.382Z,8.79
2019-03-12T13:02:57.706Z,8.77
2019-03-12T13:06:03.111Z,8.97
2019-03-12T13:09:08.522Z,8.89
2019-03-12T13:12:15.333Z,8.61
2019-03-12T13:15:20.635Z,8.78
2019-03-12T13:18:27.416Z,9.12
2019-03-12T13:21:32.772Z,8.82
2019-03-12T13:24:38.095Z,8.61
2019-03-12T13:27:43.391Z,8.72
2019-03-12T13:30:48.837Z,8.85
2019-03-12T13:33:54.140Z,9.40
2019-03-12T13:36:59.370Z,8.57
2019-03-12T13:40:05.359Z,8.60
2019-03-12T13:43:10.845Z,8.93
2019-03-12T13:46:16.256Z,9.23
2019-03-12T13:49:22.616Z,9.25
2019-03-12T13:52:28.431Z,8.62
2019-03-12T13:55:33.992Z,8.88
2019-03-12T13:58:39.345Z,8.77
2019-03-12T14:01:44.640Z,9.07
2019-03-12T14:04:49.953Z,9.21
2019-03-12T14:07:55.280Z,9.05
2019-03-12T14:11:00.571Z,8.94
2019-03-12T14:14:05.946Z,9.45
2019-03-12T14:17:11.241Z,9.68
2019-03-12T14:20:54.733Z,9.12
2019-03-12T14:24:02.170Z,9.11
2019-03-12T14:27:07.513Z,9.35
2019-03-12T14:30:13.937Z,9.20
2019-03-12T14:33:19.214Z,9.55
2019-03-12T14:36:24.453Z,9.08
2019-03-12T14:39:29.751Z,9.02
2019-03-12T14:42:35.130Z,9.22
2019-03-12T14:45:42.840Z,9.15
2019-03-12T14:48:53.437Z,9.20
2019-03-12T14:52:19.799Z,9.25
2019-03-12T14:55:25.175Z,9.03
2019-03-12T14:58:32.000Z,9.29
2019-03-12T15:01:37.362Z,9.17
2019-03-12T15:04:42.661Z,9.32
2019-03-12T15:07:49.020Z,9.32
2019-03-12T15:10:54.406Z,9.36
2019-03-12T15:13:59.806Z,8.96
2019-03-12T15:17:05.201Z,9.24
2019-03-12T15:20:10.730Z,9.03
2019-03-12T15:23:15.981Z,8.88
2019-03-12T15:26:21.182Z,8.96
2019-03-12T15:29:26.467Z,8.85
2019-03-12T15:32:31.761Z,8.81
2019-03-12T15:35:37.100Z,8.80
2019-03-12T15:38:42.474Z,8.87
2019-03-12T15:41:47.745Z,8.70
2019-03-12T15:44:53.120Z,8.62
2019-03-12T15:47:58.408Z,8.58
2019-03-12T15:51:03.737Z,8.88
2019-03-12T15:54:08.979Z,8.50
2019-03-12T15:57:14.221Z,8.63
2019-03-12T16:00:20.712Z,8.71
2019-03-12T16:03:26.086Z,8.45
2019-03-12T16:06:32.617Z,8.41
2019-03-12T16:09:37.938Z,8.36
2019-03-12T16:12:44.825Z,8.28
2019-03-12T16:15:50.119Z,8.26
2019-03-12T16:18:55.462Z,8.27
2019-03-12T16:22:00.871Z,8.19
2019-03-12T16:25:06.329Z,8.27
2019-03-12T16:28:11.606Z,8.32
2019-03-12T16:31:16.911Z,8.32
2019-03-12T16:34:22.199Z,8.38
2019-03-12T16:37:28.604Z,8.42
2019-03-12T16:40:33.946Z,8.31
2019-03-12T16:43:39.271Z,8.15
2019-03-12T16:46:44.565Z,8.21
2019-03-12T16:49:49.840Z,8.19
2019-03-12T16:52:55.125Z,8.14
2019-03-12T16:56:00.460Z,8.35
2019-03-12T16:59:08.272Z,8.21
2019-03-12T17:02:12.654Z,7.97
2019-03-12T17:05:18.943Z,7.99
2019-03-12T17:08:24.214Z,8.22
2019-03-12T17:11:29.507Z,8.00
2019-03-12T17:14:39.148Z,7.92
2019-03-12T17:17:41.727Z,7.97
2019-03-12T17:20:47.060Z,7.98
2019-03-12T17:23:52.436Z,7.99
2019-03-12T17:26:57.839Z,7.99
2019-03-12T17:30:03.216Z,7.88
2019-03-12T17:33:10.076Z,7.97
2019-03-12T17:36:15.374Z,7.90
2019-03-12T17:39:20.713Z,7.92
2019-03-12T17:42:25.991Z,7.83
2019-03-12T17:45:31.355Z,7.86
2019-03-12T17:48:36.678Z,7.68
2019-03-12T17:51:41.986Z,7.58
2019-03-12T17:54:47.247Z,7.70
2019-03-12T17:57:57.355Z,7.62
2019-03-12T18:00:59.500Z,7.81
2019-03-12T18:04:05.961Z,7.70
2019-03-12T18:07:11.270Z,7.59
2019-03-12T18:10:16.580Z,7.96
2019-03-12T18:13:21.914Z,7.77
2019-03-12T18:16:39.968Z,8.02
2019-03-12T18:19:34.203Z,7.78
2019-03-12T18:22:39.702Z,7.91
2019-03-12T18:25:45.051Z,8.04
2019-03-12T18:28:50.331Z,7.91
2019-03-12T18:31:55.609Z,7.71
2019-03-12T18:35:00.866Z,7.94
2019-03-12T18:38:06.449Z,8.11
2019-03-12T18:41:11.840Z,7.84
2019-03-12T18:44:17.189Z,7.75
2019-03-12T18:47:22.492Z,7.73
2019-03-12T18:50:27.788Z,8.02
2019-03-12T18:53:34.246Z,8.02
2019-03-12T18:56:40.644Z,7.81
2019-03-12T18:59:45.994Z,7.79
2019-03-12T19:02:52.615Z,7.99
2019-03-12T19:05:59.501Z,7.99
2019-03-12T19:09:06.389Z,8.06
2019-03-12T19:12:12.575Z,7.96
2019-03-12T19:15:17.975Z,7.84
2019-03-12T19:18:23.253Z,7.93
2019-03-12T19:21:28.586Z,8.12
2019-03-12T19:24:34.024Z,8.07
2019-03-12T19:27:39.569Z,8.12
2019-03-12T19:30:44.923Z,8.01
2019-03-12T19:33:51.176Z,8.00
2019-03-12T19:36:56.440Z,7.98
2019-03-12T19:40:01.875Z,8.13
2019-03-12T19:43:07.329Z,7.98
2019-03-12T19:46:12.679Z,8.06
2019-03-12T19:49:20.039Z,8.15
2019-03-12T19:52:25.348Z,8.02
2019-03-12T19:55:36.715Z,8.21
2019-03-12T19:58:41.955Z,8.22
2019-03-12T20:01:48.517Z,8.18
2019-03-12T20:04:53.874Z,8.20
2019-03-12T20:07:59.330Z,8.03
2019-03-12T20:11:48.976Z,8.16
2019-03-12T20:15:39.598Z,8.07
2019-03-12T20:19:16.746Z,8.00
2019-03-12T20:22:57.874Z,8.33
2019-03-12T20:26:41.808Z,8.30
2019-03-12T20:30:30.282Z,8.15
2019-03-12T20:34:13.954Z,8.21
2019-03-12T20:37:55.364Z,8.23
2019-03-12T20:41:56.509Z,7.96
2019-03-12T20:45:32.575Z,7.94
2019-03-12T20:49:15.008Z,8.01
2019-03-12T20:53:00.312Z,8.09
2019-03-12T20:56:42.391Z,8.15
2019-03-12T21:00:35.978Z,8.31
2019-03-12T21:04:21.467Z,8.20
2019-03-12T21:08:16.681Z,8.09
2019-03-12T21:12:10.532Z,8.13
2019-03-12T21:15:58.972Z,8.12
2019-03-12T21:19:39.840Z,8.04
2019-03-12T21:23:23.988Z,8.20
2019-03-12T21:27:05.376Z,8.28
2019-03-12T21:30:11.400Z,8.35
2019-03-12T21:33:15.973Z,8.47
2019-03-12T21:36:21.276Z,8.47
2019-03-12T21:39:26.572Z,8.38
2019-03-12T21:42:31.847Z,8.26
2019-03-12T21:45:38.095Z,8.15
2019-03-12T21:48:43.722Z,8.13
2019-03-12T21:51:49.085Z,8.07
2019-03-12T21:54:54.381Z,8.02
2019-03-12T21:57:59.849Z,7.91
2019-03-12T22:01:05.305Z,7.76
2019-03-12T22:04:10.584Z,7.71
2019-03-12T22:07:15.844Z,7.54
2019-03-12T22:10:21.234Z,7.44
2019-03-12T22:13:26.529Z,7.58
2019-03-12T22:16:33.420Z,7.49
2019-03-12T22:19:41.741Z,7.50
2019-03-12T22:22:51.572Z,7.53
2019-03-12T22:25:56.812Z,7.57
2019-03-12T22:29:02.039Z,7.58
2019-03-12T22:32:07.329Z,7.61
2019-03-12T22:35:12.643Z,7.69
2019-03-12T22:38:17.973Z,7.67
2019-03-12T22:41:23.300Z,7.60
2019-03-12T22:44:28.567Z,7.72
2019-03-12T22:47:33.833Z,7.56
2019-03-12T22:50:39.207Z,7.22
2019-03-12T22:53:44.503Z,6.88
2019-03-12T22:56:51.295Z,6.61
2019-03-12T23:00:00.538Z,6.11
2019-03-12T23:03:23.914Z,5.69
2019-03-12T23:06:49.019Z,5.55
2019-03-12T23:10:15.929Z,5.23
2019-03-12T23:13:22.829Z,5.07
2019-03-12T23:16:29.673Z,5.01
2019-03-12T23:19:35.334Z,4.91
2019-03-12T23:22:40.747Z,4.80
2019-03-12T23:25:46.008Z,4.84
2019-03-12T23:28:51.258Z,4.75
2019-03-12T23:31:56.499Z,4.75
2019-03-12T23:35:01.736Z,4.65
2019-03-12T23:38:07.125Z,4.62
2019-03-12T23:41:12.516Z,4.65
2019-03-12T23:44:17.788Z,4.60
2019-03-12T23:47:23.102Z,4.53
2019-03-12T23:50:32.418Z,4.56
2019-03-12T23:53:37.642Z,4.54
2019-03-12T23:56:42.940Z,4.58
2019-03-12T23:59:48.203Z,4.58
